Time;durP1;ratioP1;P1;durP2;ratioP2;P2;SDS_P1;SDS_P2;PMS_P1;PMS_P2;Temp;Humidity;BMP_temperature;BMP_pressure;BME280_temperature;BME280_humidity;BME280_pressure;Samples;Min_cycle;Max_cycle;Signal;HPM_P1;HPM_P2
2022/04/20 00:01:04;;;;;;;4.07;2.60;;;5.00;99.90;;;;;;5053340;28;20043;-83
2022/04/20 00:03:29;;;;;;;6.82;2.72;;;5.00;99.90;;;;;;5059601;28;20031;-82
2022/04/20 00:05:55;;;;;;;3.92;2.72;;;4.90;99.90;;;;;;5053826;28;20028;-82
2022/04/20 00:08:20;;;;;;;4.00;2.70;;;4.80;99.90;;;;;;5060508;28;20029;-82
2022/04/20 00:10:46;;;;;;;4.93;3.05;;;4.70;99.90;;;;;;5053028;28;20021;-82
2022/04/20 00:13:13;;;;;;;5.97;3.28;;;4.70;99.90;;;;;;5060008;28;20025;-82
2022/04/20 00:15:38;;;;;;;5.97;2.83;;;4.70;99.90;;;;;;5071150;28;20020;-82
2022/04/20 00:18:04;;;;;;;6.85;3.50;;;4.70;99.90;;;;;;5067143;28;20062;-82
2022/04/20 00:20:29;;;;;;;5.68;3.25;;;4.70;99.90;;;;;;5068594;28;20033;-82
2022/04/20 00:22:55;;;;;;;7.13;3.63;;;4.70;99.90;;;;;;5054279;28;20021;-82
2022/04/20 00:25:21;;;;;;;5.75;3.33;;;4.60;99.90;;;;;;5071018;28;20422;-82
2022/04/20 00:27:47;;;;;;;4.78;3.05;;;4.60;99.90;;;;;;5076959;28;20112;-82
2022/04/20 00:30:12;;;;;;;6.95;3.70;;;4.60;99.90;;;;;;5076569;28;20024;-82
2022/04/20 00:32:39;;;;;;;5.25;3.17;;;4.50;99.90;;;;;;5076721;28;20040;-82
2022/04/20 00:35:06;;;;;;;7.38;3.63;;;4.60;99.90;;;;;;5059998;28;20024;-82
2022/04/20 00:37:33;;;;;;;11.73;3.88;;;4.50;99.90;;;;;;5061754;28;20074;-82
2022/04/20 00:39:59;;;;;;;4.72;3.03;;;4.50;99.90;;;;;;5073114;28;20135;-82
2022/04/20 00:42:26;;;;;;;14.85;5.43;;;4.50;99.90;;;;;;5057096;28;20107;-82
2022/04/20 00:44:52;;;;;;;7.35;3.38;;;4.50;99.90;;;;;;5067726;28;20024;-83
2022/04/20 00:47:18;;;;;;;5.40;3.38;;;4.50;99.90;;;;;;5057934;28;20135;-82
2022/04/20 00:49:47;;;;;;;8.35;3.05;;;4.50;99.90;;;;;;5078201;28;20029;-82
2022/04/20 00:52:13;;;;;;;10.48;3.42;;;4.50;99.90;;;;;;5067408;28;20039;-82
2022/04/20 00:54:41;;;;;;;8.77;3.60;;;4.60;99.90;;;;;;5078951;28;20028;-82
2022/04/20 00:57:06;;;;;;;3.72;2.88;;;4.60;99.90;;;;;;5075802;28;20383;-82
2022/04/20 00:59:36;;;;;;;3.42;2.60;;;4.60;99.90;;;;;;5076718;28;20028;-82
2022/04/20 01:02:03;;;;;;;4.70;2.85;;;4.60;99.90;;;;;;5078357;28;20103;-82
2022/04/20 01:04:30;;;;;;;7.10;3.47;;;4.60;99.90;;;;;;5078016;28;20030;-82
2022/04/20 01:06:59;;;;;;;6.80;3.42;;;4.60;99.90;;;;;;5078820;28;20443;-82
2022/04/20 01:09:28;;;;;;;8.27;3.70;;;4.50;99.90;;;;;;5075875;28;20067;-82
2022/04/20 01:11:55;;;;;;;7.30;3.40;;;4.50;99.90;;;;;;5051443;28;20380;-82
2022/04/20 01:14:20;;;;;;;5.75;3.33;;;4.40;99.90;;;;;;5077665;28;20074;-82
2022/04/20 01:16:47;;;;;;;8.10;3.78;;;4.20;99.90;;;;;;5077965;28;20024;-82
2022/04/20 01:19:13;;;;;;;5.47;3.45;;;4.20;99.90;;;;;;5068170;28;20535;-82
2022/04/20 01:21:45;;;;;;;6.40;3.17;;;4.10;99.90;;;;;;5078039;28;20427;-82
2022/04/20 01:24:11;;;;;;;4.72;3.38;;;4.10;99.90;;;;;;5078038;28;20086;-83
2022/04/20 01:26:39;;;;;;;8.50;3.65;;;4.10;99.90;;;;;;5077819;28;20028;-82
2022/04/20 01:29:06;;;;;;;5.05;2.80;;;4.10;99.90;;;;;;5070192;28;20032;-82
2022/04/20 01:31:31;;;;;;;6.07;3.17;;;4.10;99.90;;;;;;5048900;28;20045;-82
2022/04/20 01:34:03;;;;;;;4.28;2.72;;;4.10;99.90;;;;;;5065854;28;20027;-82
2022/04/20 01:36:28;;;;;;;5.97;3.50;;;4.10;99.90;;;;;;5060771;28;20028;-82
2022/04/20 01:38:54;;;;;;;5.32;3.40;;;4.00;99.90;;;;;;5057739;28;20035;-82
2022/04/20 01:41:24;;;;;;;4.70;3.55;;;4.00;99.90;;;;;;5057546;28;20429;-82
2022/04/20 01:43:50;;;;;;;8.68;3.50;;;3.90;99.90;;;;;;5074684;28;20035;-82
2022/04/20 01:46:17;;;;;;;4.00;3.28;;;3.80;99.90;;;;;;5073716;28;20021;-82
2022/04/20 01:48:43;;;;;;;7.93;3.90;;;3.90;99.90;;;;;;5074701;28;20028;-82
2022/04/20 01:53:53;;;;;;;7.63;3.65;;;3.90;99.90;;;;;;5070437;28;20537;-82
2022/04/20 01:56:19;;;;;;;4.82;3.60;;;3.90;99.90;;;;;;5056214;28;20020;-82
2022/04/20 01:58:45;;;;;;;9.00;4.30;;;3.80;99.90;;;;;;5074714;28;20464;-82
2022/04/20 02:03:56;;;;;;;7.28;4.35;;;3.80;99.90;;;;;;5055022;28;20035;-82
2022/04/20 02:06:21;;;;;;;9.15;4.00;;;3.70;99.90;;;;;;5053742;28;20540;-82
2022/04/20 02:08:47;;;;;;;5.10;3.78;;;3.70;99.90;;;;;;5068733;28;20095;-81
2022/04/20 02:11:13;;;;;;;5.20;3.80;;;3.70;99.90;;;;;;5073478;28;20450;-82
2022/04/20 02:13:39;;;;;;;5.38;3.65;;;3.60;99.90;;;;;;5073826;28;20032;-82
2022/04/20 02:16:04;;;;;;;6.63;3.58;;;3.60;99.90;;;;;;5067888;28;20111;-82
2022/04/20 02:18:31;;;;;;;7.72;3.55;;;3.60;99.90;;;;;;5070933;28;20459;-82
2022/04/20 02:20:56;;;;;;;9.07;3.70;;;3.70;99.90;;;;;;5074526;28;20473;-82
2022/04/20 02:23:22;;;;;;;3.70;3.17;;;3.60;99.90;;;;;;5073748;28;20019;-82
2022/04/20 02:25:47;;;;;;;5.10;3.38;;;3.70;99.90;;;;;;5072261;28;20388;-82
2022/04/20 02:28:13;;;;;;;9.23;4.38;;;3.70;99.90;;;;;;5054616;28;20543;-82
2022/04/20 02:30:38;;;;;;;10.27;4.15;;;3.60;99.90;;;;;;5064840;28;20530;-82
2022/04/20 02:33:04;;;;;;;5.32;3.97;;;3.60;99.90;;;;;;5073486;28;20053;-82
2022/04/20 02:35:31;;;;;;;6.90;4.22;;;3.50;99.90;;;;;;5074561;28;20059;-82
2022/04/20 02:37:56;;;;;;;7.68;3.58;;;3.50;99.90;;;;;;5073139;28;20066;-83
2022/04/20 02:40:22;;;;;;;5.10;3.70;;;3.40;99.90;;;;;;5055610;28;20029;-82
2022/04/20 02:42:48;;;;;;;4.30;3.45;;;3.50;99.90;;;;;;5056155;28;20052;-82
2022/04/20 02:45:16;;;;;;;4.80;3.33;;;3.50;99.90;;;;;;5074118;28;20464;-82
2022/04/20 02:47:41;;;;;;;5.38;3.28;;;3.50;99.90;;;;;;5067638;28;20070;-81
2022/04/20 02:50:07;;;;;;;5.20;3.47;;;3.50;99.90;;;;;;5049708;28;20385;-82
2022/04/20 02:52:33;;;;;;;9.95;4.25;;;3.50;99.90;;;;;;5074076;28;20078;-82
2022/04/20 02:54:58;;;;;;;4.43;3.42;;;3.40;99.90;;;;;;5052877;28;20024;-82
2022/04/20 02:57:24;;;;;;;9.73;3.95;;;3.40;99.90;;;;;;5054482;28;20107;-82
2022/04/20 02:59:49;;;;;;;7.65;3.95;;;3.40;99.90;;;;;;5072817;28;20086;-82
2022/04/20 03:02:17;;;;;;;7.07;3.90;;;3.40;99.90;;;;;;5054494;28;20111;-83
2022/04/20 03:04:42;;;;;;;8.05;3.97;;;3.30;99.90;;;;;;5052465;28;20021;-83
2022/04/20 03:07:08;;;;;;;6.90;4.40;;;3.30;99.90;;;;;;5070520;28;20020;-82
2022/04/20 03:09:33;;;;;;;5.72;4.13;;;3.30;99.90;;;;;;5073446;28;20040;-82
2022/04/20 03:12:00;;;;;;;6.30;4.00;;;3.20;99.90;;;;;;5064942;28;20119;-82
2022/04/20 03:14:26;;;;;;;4.25;3.53;;;3.10;99.90;;;;;;5058603;28;20438;-82
2022/04/20 03:16:51;;;;;;;5.32;3.83;;;3.10;99.90;;;;;;5072701;28;20028;-82
2022/04/20 03:19:18;;;;;;;7.70;4.20;;;3.10;99.90;;;;;;5065803;28;20021;-81
2022/04/20 03:21:43;;;;;;;4.68;4.18;;;3.00;99.90;;;;;;5069179;28;20495;-81
2022/04/20 03:24:09;;;;;;;7.53;4.38;;;3.00;99.90;;;;;;5068346;28;20025;-82
2022/04/20 03:26:35;;;;;;;7.25;4.65;;;3.00;99.90;;;;;;5069757;28;20059;-81
2022/04/20 03:29:00;;;;;;;4.85;4.07;;;3.00;99.90;;;;;;5073253;28;20028;-82
2022/04/20 03:31:26;;;;;;;7.13;4.15;;;3.00;99.90;;;;;;5051502;28;20560;-82
2022/04/20 03:33:51;;;;;;;8.98;4.43;;;3.00;99.90;;;;;;5052597;28;20597;-81
2022/04/20 03:36:17;;;;;;;11.48;4.88;;;3.00;99.90;;;;;;5053499;28;20029;-81
2022/04/20 03:38:43;;;;;;;9.52;4.05;;;3.00;99.90;;;;;;5051535;28;20044;-83
2022/04/20 03:41:09;;;;;;;18.52;4.72;;;3.00;99.90;;;;;;5052708;28;20469;-81
2022/04/20 03:43:34;;;;;;;9.30;4.65;;;3.00;99.90;;;;;;5053023;28;20028;-81
2022/04/20 03:46:00;;;;;;;12.18;4.43;;;3.00;99.90;;;;;;5046004;28;20024;-81
2022/04/20 03:48:26;;;;;;;9.02;5.05;;;3.00;99.90;;;;;;5049941;28;20029;-82
2022/04/20 03:50:52;;;;;;;14.45;4.63;;;3.00;99.90;;;;;;5051761;28;20048;-81
2022/04/20 03:53:18;;;;;;;7.78;3.92;;;2.90;99.90;;;;;;5051529;28;20063;-81
2022/04/20 03:55:45;;;;;;;14.02;4.68;;;2.90;99.90;;;;;;5052757;28;20021;-81
2022/04/20 03:58:11;;;;;;;13.40;6.07;;;2.90;99.90;;;;;;5048516;28;20088;-81
2022/04/20 04:00:37;;;;;;;10.23;5.03;;;2.90;99.90;;;;;;5052134;28;20047;-81
2022/04/20 04:03:04;;;;;;;10.65;5.00;;;2.90;99.90;;;;;;5051094;28;20024;-82
2022/04/20 04:05:29;;;;;;;11.25;5.68;;;2.90;99.90;;;;;;5052638;28;20029;-82
2022/04/20 04:07:55;;;;;;;8.65;5.93;;;2.90;99.90;;;;;;5051272;28;20495;-82
2022/04/20 04:10:20;;;;;;;8.02;5.45;;;2.90;99.90;;;;;;5052795;28;20051;-81
2022/04/20 04:12:46;;;;;;;9.10;4.70;;;2.90;99.90;;;;;;5051820;28;20061;-81
2022/04/20 04:15:12;;;;;;;6.88;4.80;;;2.90;99.90;;;;;;5050442;28;20029;-81
2022/04/20 04:17:38;;;;;;;6.45;4.47;;;2.80;99.90;;;;;;5051774;28;20354;-82
2022/04/20 04:20:04;;;;;;;8.00;4.40;;;2.90;99.90;;;;;;5051721;28;20029;-81
2022/04/20 04:22:30;;;;;;;7.47;4.80;;;2.90;99.90;;;;;;5052390;28;20032;-82
2022/04/20 04:24:57;;;;;;;9.38;4.68;;;3.00;99.90;;;;;;5050886;28;20430;-82
2022/04/20 04:27:22;;;;;;;8.55;4.43;;;3.00;99.90;;;;;;5052043;28;20104;-82
2022/04/20 04:29:48;;;;;;;6.85;4.40;;;3.10;99.90;;;;;;5048144;28;20075;-81
2022/04/20 04:32:14;;;;;;;9.00;4.32;;;3.10;99.90;;;;;;5063244;28;20101;-81
2022/04/20 04:34:40;;;;;;;10.65;4.65;;;3.10;99.90;;;;;;5069897;28;20373;-82
2022/04/20 04:37:13;;;;;;;7.85;4.40;;;3.00;99.90;;;;;;5055139;28;20025;-81
2022/04/20 04:39:39;;;;;;;11.98;5.18;;;3.00;99.90;;;;;;5072631;28;20110;-82
2022/04/20 04:42:05;;;;;;;12.65;4.72;;;3.00;99.90;;;;;;5072478;28;20063;-82
2022/04/20 04:44:32;;;;;;;8.45;5.40;;;3.00;99.90;;;;;;5062015;28;20078;-82
2022/04/20 04:49:42;;;;;;;7.00;4.70;;;3.10;99.90;;;;;;5072736;28;20071;-82
2022/04/20 04:52:11;;;;;;;8.60;5.53;;;3.20;99.90;;;;;;5071674;28;20090;-81
2022/04/20 04:54:39;;;;;;;16.88;5.38;;;3.20;99.90;;;;;;5054514;28;20070;-81
2022/04/20 04:57:07;;;;;;;12.60;5.68;;;3.40;99.90;;;;;;5066689;28;20021;-81
2022/04/20 04:59:34;;;;;;;14.13;6.85;;;3.50;99.90;;;;;;5052559;28;20414;-81
2022/04/20 05:01:59;;;;;;;10.68;6.20;;;3.60;99.90;;;;;;5069038;28;20020;-81
2022/04/20 05:04:25;;;;;;;12.45;6.18;;;3.60;99.90;;;;;;5071770;28;20028;-81
2022/04/20 05:06:51;;;;;;;12.02;6.43;;;3.70;99.90;;;;;;5068817;28;20146;-81
2022/04/20 05:09:16;;;;;;;19.40;7.28;;;3.90;99.90;;;;;;5072280;28;20385;-81
2022/04/20 05:11:42;;;;;;;18.27;8.90;;;4.00;99.90;;;;;;5068380;28;20491;-81
2022/04/20 05:14:08;;;;;;;17.00;7.75;;;4.10;99.90;;;;;;5072593;28;20027;-81
2022/04/20 05:16:34;;;;;;;9.60;5.20;;;4.30;99.90;;;;;;5074562;28;20024;-81
2022/04/20 05:19:00;;;;;;;12.30;5.55;;;4.50;99.90;;;;;;5074837;28;20116;-81
2022/04/20 05:21:25;;;;;;;9.40;4.82;;;4.70;99.90;;;;;;5072032;28;20028;-82
2022/04/20 05:23:51;;;;;;;6.85;4.75;;;4.80;99.90;;;;;;5072567;28;20095;-82
2022/04/20 05:26:16;;;;;;;8.20;3.95;;;4.90;99.90;;;;;;5070486;28;20108;-83
2022/04/20 05:28:42;;;;;;;12.00;4.95;;;5.10;99.90;;;;;;5055445;28;20029;-82
2022/04/20 05:31:08;;;;;;;9.93;4.53;;;5.20;99.90;;;;;;5069536;28;20041;-83
2022/04/20 05:33:34;;;;;;;8.98;4.15;;;5.40;99.90;;;;;;5073794;28;20395;-82
2022/04/20 05:36:00;;;;;;;8.02;4.43;;;5.40;99.90;;;;;;5075098;28;20519;-82
2022/04/20 05:43:56;;;;;;;7.68;4.10;;;5.70;99.90;;;;;;5072945;28;20045;-82
2022/04/20 05:46:21;;;;;;;9.93;3.80;;;5.80;99.90;;;;;;5073788;28;20024;-82
2022/04/20 05:48:47;;;;;;;10.95;4.63;;;5.90;99.90;;;;;;5069838;28;20539;-83
2022/04/20 05:51:13;;;;;;;12.23;4.18;;;6.00;99.90;;;;;;5068502;28;20033;-82
2022/04/20 05:53:39;;;;;;;12.25;4.75;;;6.00;99.90;;;;;;5066416;28;20028;-82
2022/04/20 05:56:05;;;;;;;5.43;3.83;;;6.10;99.90;;;;;;5062399;28;20070;-82
2022/04/20 05:58:31;;;;;;;7.05;4.60;;;6.20;99.90;;;;;;5062566;28;20033;-82
2022/04/20 06:00:57;;;;;;;7.65;3.80;;;6.20;99.90;;;;;;5062197;28;20028;-82
2022/04/20 06:03:22;;;;;;;9.32;4.55;;;6.20;99.90;;;;;;5041491;28;20517;-83
2022/04/20 06:05:48;;;;;;;8.88;4.72;;;6.10;99.90;;;;;;5074098;28;20021;-82
2022/04/20 06:08:14;;;;;;;8.25;4.55;;;6.10;99.90;;;;;;5074273;28;20438;-82
2022/04/20 06:10:39;;;;;;;8.18;5.07;;;6.10;99.90;;;;;;5055055;28;20115;-82
2022/04/20 06:13:06;;;;;;;8.25;5.53;;;6.10;99.90;;;;;;5062044;28;20112;-82
2022/04/20 06:15:32;;;;;;;8.63;5.18;;;6.10;99.90;;;;;;5068462;28;20028;-82
2022/04/20 06:18:00;;;;;;;12.68;5.07;;;6.10;99.90;;;;;;5065135;28;20025;-82
2022/04/20 06:20:25;;;;;;;13.07;5.53;;;6.10;99.90;;;;;;5058543;28;20024;-83
2022/04/20 06:22:52;;;;;;;9.20;5.03;;;6.20;99.90;;;;;;5051763;28;20491;-83
2022/04/20 06:25:17;;;;;;;14.38;4.55;;;6.20;99.90;;;;;;5065818;28;20040;-82
2022/04/20 06:27:43;;;;;;;6.07;4.35;;;6.20;99.90;;;;;;5072347;28;20021;-83
2022/04/20 06:30:09;;;;;;;6.82;4.38;;;6.20;99.90;;;;;;5067227;28;20031;-83
2022/04/20 06:32:36;;;;;;;12.10;4.65;;;6.30;99.90;;;;;;5054936;28;20527;-83
2022/04/20 06:35:02;;;;;;;9.07;4.90;;;6.30;99.90;;;;;;5054459;28;20044;-83
2022/04/20 06:37:27;;;;;;;7.97;4.22;;;6.30;99.90;;;;;;5039462;28;20087;-83
2022/04/20 06:39:56;;;;;;;8.20;4.70;;;6.30;99.90;;;;;;5036575;28;20027;-83
2022/04/20 06:42:22;;;;;;;10.48;4.43;;;6.30;99.90;;;;;;5054181;28;20097;-83
2022/04/20 06:44:51;;;;;;;10.10;4.32;;;6.40;99.90;;;;;;5054135;28;20032;-83
2022/04/20 06:47:17;;;;;;;8.88;3.95;;;6.40;99.90;;;;;;5059045;28;20028;-83
2022/04/20 06:49:42;;;;;;;9.25;3.58;;;6.40;99.90;;;;;;5056398;28;20411;-83
2022/04/20 07:00:27;;;;;;;10.57;4.35;;;6.60;99.90;;;;;;5073055;28;19993;-83
2022/04/20 07:03:06;;;;;;;10.70;4.47;;;6.70;99.90;;;;;;5067999;28;20027;-83
2022/04/20 07:05:36;;;;;;;10.57;4.45;;;6.60;99.90;;;;;;5073041;28;20021;-84
2022/04/20 07:08:03;;;;;;;13.55;4.97;;;6.70;99.90;;;;;;5072996;28;20031;-83
2022/04/20 07:10:29;;;;;;;15.50;5.57;;;6.80;99.90;;;;;;5073128;28;20040;-83
2022/04/20 07:12:55;;;;;;;10.13;5.28;;;6.80;99.90;;;;;;5051639;28;20028;-83
2022/04/20 07:15:20;;;;;;;15.93;6.03;;;6.80;99.90;;;;;;5053493;28;20021;-83
2022/04/20 07:17:46;;;;;;;8.88;4.13;;;6.80;99.90;;;;;;5070786;28;20039;-83
2022/04/20 07:20:17;;;;;;;7.00;4.22;;;6.90;99.90;;;;;;5073566;28;20024;-84
2022/04/20 07:22:47;;;;;;;9.93;4.93;;;6.90;99.90;;;;;;5073167;28;20025;-83
2022/04/20 07:25:14;;;;;;;11.13;4.28;;;7.00;99.90;;;;;;5051866;28;20116;-83
2022/04/20 07:27:39;;;;;;;8.48;3.53;;;7.00;99.90;;;;;;5067969;28;20012;-83
2022/04/20 07:30:05;;;;;;;12.02;4.20;;;7.10;99.90;;;;;;5072942;28;20103;-83
2022/04/20 07:32:31;;;;;;;7.03;3.80;;;7.10;99.90;;;;;;5059456;28;20080;-83
2022/04/20 07:34:58;;;;;;;11.07;3.67;;;7.20;99.90;;;;;;5035547;28;20032;-83
2022/04/20 07:37:23;;;;;;;8.10;3.60;;;7.20;99.90;;;;;;5053096;28;20115;-83
2022/04/20 07:39:50;;;;;;;8.55;4.35;;;7.20;99.90;;;;;;5036265;28;20508;-83
2022/04/20 07:42:15;;;;;;;9.52;4.00;;;7.20;99.90;;;;;;5071842;28;20016;-83
2022/04/20 07:44:43;;;;;;;9.63;3.80;;;7.30;99.90;;;;;;5055319;28;20032;-83
2022/04/20 07:47:09;;;;;;;5.80;3.50;;;7.40;99.90;;;;;;5071835;28;20032;-83
2022/04/20 07:52:21;;;;;;;8.20;3.55;;;7.50;99.90;;;;;;5053279;28;20120;-83
2022/04/20 07:54:48;;;;;;;5.25;3.60;;;7.60;99.90;;;;;;5058319;28;20024;-83
2022/04/20 07:57:15;;;;;;;7.93;4.00;;;7.60;99.90;;;;;;5072848;28;20040;-83
2022/04/20 07:59:44;;;;;;;8.27;4.38;;;7.70;99.90;;;;;;5070747;28;20406;-83
2022/04/20 08:02:10;;;;;;;12.18;3.97;;;7.70;99.90;;;;;;5052793;28;20130;-83
2022/04/20 08:04:36;;;;;;;8.82;4.28;;;7.80;99.90;;;;;;5055721;28;20059;-83
2022/04/20 08:07:02;;;;;;;13.38;4.32;;;7.80;99.90;;;;;;5053000;28;20052;-83
2022/04/20 08:09:29;;;;;;;6.80;4.40;;;7.90;99.90;;;;;;5037095;28;20025;-82
2022/04/20 08:11:54;;;;;;;8.55;3.97;;;8.00;99.90;;;;;;5052891;28;20036;-83
2022/04/20 08:14:21;;;;;;;7.47;4.10;;;8.00;99.90;;;;;;5063547;28;20032;-83
2022/04/20 08:16:48;;;;;;;8.27;4.18;;;8.00;99.90;;;;;;5072249;28;20024;-83
2022/04/20 08:19:14;;;;;;;11.15;4.28;;;8.00;99.90;;;;;;5071912;28;20024;-84
2022/04/20 08:21:39;;;;;;;14.30;4.70;;;8.10;99.90;;;;;;5054390;28;20019;-83
2022/04/20 08:24:06;;;;;;;11.50;5.05;;;8.10;99.90;;;;;;5054219;28;20025;-83
2022/04/20 08:26:31;;;;;;;13.80;4.95;;;8.20;99.90;;;;;;5071897;28;20033;-83
2022/04/20 08:28:58;;;;;;;11.57;5.18;;;8.30;99.90;;;;;;5071434;28;20365;-83
2022/04/20 08:31:25;;;;;;;10.13;5.18;;;8.40;99.90;;;;;;5070078;28;20045;-82
2022/04/20 08:33:51;;;;;;;15.18;4.82;;;8.50;99.90;;;;;;5071702;28;20059;-82
2022/04/20 08:36:18;;;;;;;13.38;4.82;;;8.50;99.90;;;;;;5071107;28;20052;-83
2022/04/20 08:38:44;;;;;;;9.07;5.07;;;8.60;99.90;;;;;;5052683;28;20469;-82
2022/04/20 08:41:13;;;;;;;11.00;6.05;;;8.60;99.90;;;;;;5072573;28;20399;-82
2022/04/20 08:43:41;;;;;;;16.50;4.53;;;8.60;99.90;;;;;;5066380;28;20025;-83
2022/04/20 08:46:11;;;;;;;12.13;4.80;;;8.60;99.90;;;;;;5071695;28;20077;-83
2022/04/20 08:48:37;;;;;;;7.43;4.75;;;8.60;99.90;;;;;;5074605;28;20089;-83
2022/04/20 08:51:04;;;;;;;7.07;4.72;;;8.60;99.90;;;;;;5076351;28;20448;-82
2022/04/20 08:53:30;;;;;;;13.55;5.25;;;8.70;99.90;;;;;;5075956;28;20036;-82
2022/04/20 08:58:43;;;;;;;7.07;4.40;;;8.60;99.90;;;;;;5076249;28;20471;-83
2022/04/20 09:01:12;;;;;;;10.02;5.85;;;8.60;99.90;;;;;;5075068;28;20085;-83
2022/04/20 09:03:38;;;;;;;11.32;4.70;;;8.70;99.90;;;;;;5075385;28;20107;-82
2022/04/20 09:06:07;;;;;;;11.13;4.60;;;8.60;99.90;;;;;;5057853;28;20048;-82
2022/04/20 09:08:34;;;;;;;11.88;4.55;;;8.70;99.90;;;;;;5065163;28;20028;-82
2022/04/20 09:11:00;;;;;;;13.93;4.65;;;8.80;99.90;;;;;;5064607;28;20174;-83
2022/04/20 09:13:35;;;;;;;9.35;4.68;;;8.80;99.90;;;;;;5075831;28;20025;-83
2022/04/20 09:16:11;;;;;;;8.23;4.20;;;8.80;99.90;;;;;;5074547;28;20027;-83
2022/04/20 09:18:38;;;;;;;10.52;5.18;;;8.80;99.90;;;;;;5068882;28;20274;-83
2022/04/20 09:21:12;;;;;;;10.05;5.07;;;8.80;99.90;;;;;;5056657;28;20029;-83
2022/04/20 09:23:39;;;;;;;10.02;5.70;;;8.80;99.90;;;;;;5048068;28;20031;-83
2022/04/20 09:26:12;;;;;;;11.30;4.72;;;8.80;99.90;;;;;;5075417;28;20048;-82
2022/04/20 09:28:40;;;;;;;10.15;4.60;;;8.90;99.90;;;;;;5075416;28;20025;-82
2022/04/20 09:31:07;;;;;;;8.90;4.05;;;8.90;99.90;;;;;;5036296;28;20088;-82
2022/04/20 09:33:49;;;;;;;9.43;4.75;;;8.90;99.90;;;;;;5070410;28;20028;-83
2022/04/20 09:36:15;;;;;;;9.90;5.30;;;8.90;99.90;;;;;;5073401;28;20023;-83
2022/04/20 09:39:03;;;;;;;9.32;5.22;;;9.00;99.90;;;;;;5074797;28;20020;-82
2022/04/20 09:41:29;;;;;;;6.93;4.03;;;9.00;99.90;;;;;;5075758;28;20021;-82
2022/04/20 09:44:09;;;;;;;8.43;4.55;;;8.90;99.90;;;;;;5062248;28;20384;-82
2022/04/20 09:49:54;;;;;;;15.65;6.03;;;8.90;99.90;;;;;;5061086;28;20072;-82
2022/04/20 09:52:20;;;;;;;11.10;5.20;;;8.90;99.90;;;;;;5071748;28;20032;-82
2022/04/20 09:54:53;;;;;;;8.15;4.90;;;8.90;99.90;;;;;;5064691;28;20024;-83
2022/04/20 09:57:21;;;;;;;14.00;5.15;;;9.00;99.90;;;;;;5063239;28;20059;-81
2022/04/20 10:00:15;;;;;;;12.30;4.90;;;9.00;99.90;;;;;;5070200;28;20028;-83
2022/04/20 10:02:46;;;;;;;10.02;4.65;;;9.10;99.90;;;;;;5055433;28;20029;-83
2022/04/20 10:05:15;;;;;;;8.10;4.90;;;9.20;99.90;;;;;;5071952;28;20074;-85
2022/04/20 10:07:40;;;;;;;13.18;5.32;;;9.20;99.90;;;;;;5056371;28;20063;-84
2022/04/20 10:10:11;;;;;;;11.75;5.60;;;9.30;99.90;;;;;;5074833;28;20056;-84
2022/04/20 10:12:42;;;;;;;10.18;4.68;;;9.30;99.90;;;;;;5073949;28;20032;-84
2022/04/20 10:18:00;;;;;;;12.48;5.60;;;9.40;99.90;;;;;;5070395;28;20059;-84
2022/04/20 10:20:34;;;;;;;14.73;5.40;;;9.50;99.90;;;;;;5074373;28;20109;-84
2022/04/20 10:23:01;;;;;;;12.55;5.22;;;9.70;99.90;;;;;;5074381;28;20035;-84
2022/04/20 10:25:28;;;;;;;14.27;5.72;;;9.70;99.90;;;;;;5074100;28;20023;-83
2022/04/20 10:28:11;;;;;;;9.70;4.90;;;9.80;99.90;;;;;;5056118;28;20020;-83
2022/04/20 10:30:37;;;;;;;14.00;5.00;;;9.90;99.90;;;;;;5072631;28;20025;-84
2022/04/20 10:33:09;;;;;;;9.85;5.40;;;10.00;99.90;;;;;;5074126;28;20500;-84
2022/04/20 10:35:54;;;;;;;9.10;5.32;;;10.00;99.90;;;;;;5074150;28;20024;-84
2022/04/20 10:38:21;;;;;;;15.07;5.13;;;10.10;99.90;;;;;;5073855;28;20484;-84
2022/04/20 10:41:18;;;;;;;9.52;4.75;;;10.30;99.90;;;;;;5063538;28;20029;-84
2022/04/20 10:44:04;;;;;;;14.82;5.60;;;10.40;99.90;;;;;;5059609;28;20392;-84
2022/04/20 10:46:29;;;;;;;14.85;6.13;;;10.40;99.90;;;;;;5048670;28;20029;-83
2022/04/20 10:49:07;;;;;;;10.00;5.43;;;10.50;99.90;;;;;;5068733;28;20423;-83
2022/04/20 10:51:43;;;;;;;6.25;3.83;;;10.40;99.90;;;;;;5071441;28;20028;-84
2022/04/20 10:54:19;;;;;;;;;;;10.40;99.90;;;;;;5074449;28;20031;-84
2022/04/20 10:56:48;;;;;;;8.57;6.40;;;10.50;99.90;;;;;;5074090;28;19904;-84
2022/04/20 10:59:14;;;;;;;7.70;5.07;;;10.60;99.90;;;;;;5056023;28;20507;-84
2022/04/20 11:01:58;;;;;;;11.98;5.70;;;10.60;99.90;;;;;;5073708;28;20016;-84
2022/04/20 11:04:42;;;;;;;10.77;4.93;;;10.60;99.90;;;;;;5073803;28;20385;-84
2022/04/20 11:07:07;;;;;;;10.10;5.05;;;10.50;99.90;;;;;;5073951;28;20105;-84
2022/04/20 11:09:49;;;;;;;9.20;5.50;;;10.40;99.90;;;;;;5073545;28;20062;-84
2022/04/20 11:21:04;;;;;;;10.93;6.45;;;10.30;99.90;;;;;;5073487;28;20043;-83
2022/04/20 11:23:53;;;;;;;14.48;6.05;;;10.40;99.90;;;;;;5073528;28;20067;-83
2022/04/20 11:26:30;;;;;;;8.52;5.88;;;10.40;99.90;;;;;;5073497;28;20099;-83
2022/04/20 11:28:59;;;;;;;12.52;6.22;;;10.40;99.90;;;;;;5073295;28;20044;-84
2022/04/20 11:31:25;;;;;;;10.52;5.97;;;10.40;99.90;;;;;;5072440;28;20504;-84
2022/04/20 11:33:52;;;;;;;9.75;5.68;;;10.40;99.90;;;;;;5073442;28;20028;-84
2022/04/20 11:36:19;;;;;;;8.07;5.45;;;10.40;99.90;;;;;;5073296;28;20426;-84
2022/04/20 11:38:51;;;;;;;6.78;5.05;;;10.40;99.90;;;;;;5073250;28;20028;-84
2022/04/20 11:41:19;;;;;;;11.68;5.50;;;10.40;99.90;;;;;;5055354;28;20512;-84
2022/04/20 11:43:49;;;;;;;9.70;6.00;;;10.40;99.90;;;;;;5055293;28;20017;-84
2022/04/20 11:46:16;;;;;;;11.20;6.18;;;10.40;99.90;;;;;;5072718;28;20044;-83
2022/04/20 11:48:56;;;;;;;9.38;6.47;;;10.40;99.90;;;;;;5072399;28;20020;-83
2022/04/20 11:51:25;;;;;;;7.65;5.55;;;10.50;99.90;;;;;;5053865;28;20029;-85
2022/04/20 11:53:55;;;;;;;14.05;6.70;;;10.60;99.90;;;;;;5078647;28;20027;-85
2022/04/20 11:56:38;;;;;;;13.60;7.47;;;10.60;99.90;;;;;;5082184;28;20016;-85
2022/04/20 11:59:10;;;;;;;16.08;7.50;;;10.70;99.90;;;;;;5053482;28;20115;-85
2022/04/20 12:01:38;;;;;;;9.25;6.05;;;10.80;99.90;;;;;;5055384;28;20392;-84
2022/04/20 12:04:18;;;;;;;14.40;6.22;;;10.80;99.90;;;;;;5072835;28;20050;-85
2022/04/20 12:06:54;;;;;;;13.18;5.97;;;10.80;99.90;;;;;;5067853;28;20043;-85
2022/04/20 12:09:28;;;;;;;14.57;7.60;;;10.80;99.90;;;;;;5072554;28;20024;-84
2022/04/20 12:11:57;;;;;;;11.20;5.93;;;10.80;99.90;;;;;;5052330;28;20021;-84
2022/04/20 12:14:28;;;;;;;15.30;6.82;;;10.80;99.90;;;;;;5057492;28;20027;-84
2022/04/20 12:16:58;;;;;;;9.07;5.72;;;10.80;99.90;;;;;;5072624;28;20103;-84
2022/04/20 12:19:24;;;;;;;6.90;4.25;;;10.80;99.90;;;;;;5072391;28;20025;-83
2022/04/20 12:21:52;;;;;;;9.23;3.80;;;10.80;99.90;;;;;;5065274;28;20059;-84
2022/04/20 12:24:20;;;;;;;8.05;3.28;;;10.80;99.90;;;;;;5058709;28;20047;-83
2022/04/20 12:26:49;;;;;;;5.40;3.47;;;10.80;99.90;;;;;;5071198;28;20032;-84
2022/04/20 12:29:18;;;;;;;7.60;3.95;;;10.70;99.90;;;;;;5071107;28;20036;-83
2022/04/20 12:31:45;;;;;;;10.02;3.47;;;10.90;99.90;;;;;;5071330;28;20530;-83
2022/04/20 12:34:15;;;;;;;11.93;3.33;;;10.90;99.90;;;;;;5071823;28;20028;-83
2022/04/20 12:36:59;;;;;;;4.97;2.92;;;11.00;99.90;;;;;;5072650;28;20052;-83
2022/04/20 12:39:36;;;;;;;5.22;3.85;;;11.10;99.90;;;;;;5071258;28;20020;-83
2022/04/20 12:42:05;;;;;;;5.38;3.45;;;11.20;99.90;;;;;;5072511;28;20021;-83
2022/04/20 12:44:38;;;;;;;5.95;3.33;;;11.20;99.90;;;;;;5053537;28;20074;-84
2022/04/20 12:47:15;;;;;;;9.63;3.58;;;11.30;99.90;;;;;;5072313;28;20013;-84
2022/04/20 12:49:51;;;;;;;6.63;3.40;;;11.40;99.90;;;;;;5072201;28;20495;-83
2022/04/20 12:52:34;;;;;;;6.90;3.10;;;11.40;99.90;;;;;;5040925;28;20494;-84
2022/04/20 12:55:09;;;;;;;7.45;3.42;;;11.40;99.90;;;;;;5061535;28;20028;-84
2022/04/20 13:03:13;;;;;;;4.90;3.00;;;11.70;99.90;;;;;;5052601;28;20086;-84
2022/04/20 13:05:42;;;;;;;4.75;2.55;;;11.80;99.90;;;;;;5062711;28;20031;-84
2022/04/20 13:08:09;;;;;;;5.65;3.03;;;11.80;99.90;;;;;;5068347;28;20029;-84
2022/04/20 13:10:39;;;;;;;8.95;3.53;;;11.80;99.90;;;;;;5070918;28;20033;-83
2022/04/20 13:13:05;;;;;;;8.07;2.85;;;11.80;99.90;;;;;;5072113;28;20036;-84
2022/04/20 13:15:34;;;;;;;3.50;2.35;;;11.70;99.90;;;;;;5070593;28;20029;-84
2022/04/20 13:18:03;;;;;;;4.90;2.95;;;11.60;99.90;;;;;;5062271;28;20108;-84
2022/04/20 13:20:30;;;;;;;4.80;2.83;;;11.60;99.90;;;;;;5052384;28;20528;-83
2022/04/20 13:22:56;;;;;;;8.32;3.10;;;11.60;99.90;;;;;;5071393;28;20040;-83
2022/04/20 13:28:08;;;;;;;7.72;3.47;;;11.60;99.90;;;;;;5065654;28;20070;-84
2022/04/20 13:30:39;;;;;;;11.57;3.30;;;11.70;99.90;;;;;;5070953;28;20029;-85
2022/04/20 13:33:13;;;;;;;4.63;2.50;;;11.70;99.90;;;;;;5071553;28;20032;-84
2022/04/20 13:35:42;;;;;;;4.57;2.70;;;11.80;99.90;;;;;;5060207;28;20469;-84
2022/04/20 13:38:09;;;;;;;3.05;2.08;;;11.90;99.90;;;;;;5054194;28;20028;-84
2022/04/20 13:40:38;;;;;;;9.23;2.50;;;11.90;99.90;;;;;;5075025;28;20056;-84
2022/04/20 13:43:04;;;;;;;5.53;2.10;;;12.00;99.90;;;;;;5071204;28;20024;-84
2022/04/20 13:45:30;;;;;;;5.50;2.65;;;12.00;99.90;;;;;;5073793;28;20116;-84